createdAt,value
2019-01-06T00:01:02.779Z,6
2019-01-06T00:02:12.852Z,6.02
2019-01-06T00:03:22.939Z,5.96
2019-01-06T00:04:34.651Z,5.89
2019-01-06T00:05:44.717Z,5.99
2019-01-06T00:06:54.796Z,6.05
2019-01-06T00:08:04.603Z,6
2019-01-06T00:09:14.690Z,5.84
2019-01-06T00:10:24.757Z,5.96
2019-01-06T00:11:34.818Z,5.91
2019-01-06T00:12:44.636Z,5.89
2019-01-06T00:13:54.738Z,5.89
2019-01-06T00:15:05.710Z,5.81
2019-01-06T00:16:15.261Z,5.91
2019-01-06T00:17:25.339Z,5.89
2019-01-06T00:18:35.379Z,5.98
2019-01-06T00:19:45.199Z,6
2019-01-06T00:20:55.052Z,6.02
2019-01-06T00:22:05.094Z,5.98
2019-01-06T00:23:14.888Z,6
2019-01-06T00:24:25.021Z,6.05
2019-01-06T00:25:35.109Z,6.05
2019-01-06T00:26:45.249Z,6.03
2019-01-06T00:27:54.779Z,6.06
2019-01-06T00:29:04.581Z,6.05
2019-01-06T00:30:14.656Z,6.02
2019-01-06T00:31:24.715Z,6.09
2019-01-06T00:32:34.776Z,6.13
2019-01-06T00:33:44.600Z,6.17
2019-01-06T00:34:54.661Z,6.03
2019-01-06T00:36:04.721Z,6
2019-01-06T00:37:14.778Z,5.98
2019-01-06T00:38:24.575Z,6.09
2019-01-06T00:39:34.701Z,6.07
2019-01-06T00:40:44.765Z,6.03
2019-01-06T00:41:54.601Z,6
2019-01-06T00:43:04.749Z,6.07
2019-01-06T00:44:14.831Z,6.09
2019-01-06T00:45:24.939Z,6.09
2019-01-06T00:46:35.000Z,6.05
2019-01-06T00:47:45.078Z,6.2
2019-01-06T00:48:55.226Z,6.14
2019-01-06T00:50:05.355Z,6.09
2019-01-06T00:51:15.746Z,6.17
2019-01-06T00:52:25.832Z,6.24
2019-01-06T00:53:35.906Z,6.21
2019-01-06T00:54:45.976Z,6.24
2019-01-06T00:55:56.034Z,6.21
2019-01-06T00:57:06.083Z,6.24
2019-01-06T00:58:16.172Z,6.21
2019-01-06T00:59:26.231Z,6.21
2019-01-06T01:00:36.311Z,6.14
2019-01-06T01:01:46.120Z,6.14
2019-01-06T01:02:55.939Z,6.26
2019-01-06T01:04:06.005Z,6.17
2019-01-06T01:05:16.066Z,6.29
2019-01-06T01:06:26.155Z,6.18
2019-01-06T01:07:36.020Z,6.18
2019-01-06T01:08:46.098Z,6.25
2019-01-06T01:09:56.238Z,6.21
2019-01-06T01:11:08.894Z,6.37
2019-01-06T01:12:19.000Z,6.29
2019-01-06T01:13:29.129Z,6.24
2019-01-06T01:14:39.209Z,6.31
2019-01-06T01:15:49.297Z,6.24
2019-01-06T01:16:59.357Z,6.2
2019-01-06T01:18:10.823Z,6.28
2019-01-06T01:19:20.930Z,6.2
2019-01-06T01:20:30.753Z,6.26
2019-01-06T01:21:40.839Z,6.2
2019-01-06T01:22:50.902Z,6.15
2019-01-06T01:24:00.955Z,6.25
2019-01-06T01:25:11.065Z,6.2
2019-01-06T01:26:21.121Z,6.14
2019-01-06T01:27:30.941Z,6.2
2019-01-06T01:28:41.002Z,6.21
2019-01-06T01:29:51.071Z,6.2
2019-01-06T01:31:00.942Z,6.13
2019-01-06T01:32:11.008Z,6.1
2019-01-06T01:33:21.092Z,6.14
2019-01-06T01:34:31.155Z,6.13
2019-01-06T01:35:40.951Z,6.13
2019-01-06T01:36:51.052Z,6.05
2019-01-06T01:38:01.125Z,6.17
2019-01-06T01:39:10.936Z,6.14
2019-01-06T01:40:21.030Z,6.17
2019-01-06T01:41:30.845Z,6.07
2019-01-06T01:42:40.946Z,6.14
2019-01-06T01:43:50.742Z,6.07
2019-01-06T01:45:00.852Z,6
2019-01-06T01:46:10.915Z,6.03
2019-01-06T01:47:20.980Z,6.06
2019-01-06T01:48:31.167Z,6.09
2019-01-06T01:49:41.228Z,6.05
2019-01-06T01:50:51.380Z,6.05
2019-01-06T01:52:01.437Z,5.92
2019-01-06T01:53:11.499Z,5.95
2019-01-06T01:54:21.615Z,6
2019-01-06T01:55:31.679Z,6.02
2019-01-06T01:56:41.491Z,5.99
2019-01-06T01:57:51.542Z,6.05
2019-01-06T01:59:01.624Z,6.05
2019-01-06T02:00:12.142Z,6.05
2019-01-06T02:01:22.584Z,6.1
2019-01-06T02:02:32.659Z,6
2019-01-06T02:03:42.471Z,6.14
2019-01-06T02:04:52.613Z,6.1
2019-01-06T02:06:02.195Z,6.17
2019-01-06T02:07:12.260Z,6.17
2019-01-06T02:08:22.345Z,6.1
2019-01-06T02:09:32.144Z,6.21
2019-01-06T02:10:41.937Z,6.14
2019-01-06T02:11:51.971Z,6.21
2019-01-06T02:13:01.592Z,6.14
2019-01-06T02:14:11.381Z,6.07
2019-01-06T02:15:21.194Z,6.15
2019-01-06T02:16:31.271Z,6.18
2019-01-06T02:17:41.102Z,6.18
2019-01-06T02:18:51.165Z,6.21
2019-01-06T02:20:01.310Z,6.14
2019-01-06T02:21:11.397Z,6.18
2019-01-06T02:22:20.990Z,6.2
2019-01-06T02:23:31.173Z,6.26
2019-01-06T02:24:40.706Z,6.2
2019-01-06T02:25:50.783Z,6.2
2019-01-06T02:27:02.510Z,6.24
2019-01-06T02:28:13.257Z,6.2
2019-01-06T02:29:23.360Z,6.15
2019-01-06T02:30:33.170Z,6.31
2019-01-06T02:31:43.215Z,6.29
2019-01-06T02:32:53.369Z,6.37
2019-01-06T02:34:03.194Z,6.37
2019-01-06T02:35:13.309Z,6.31
2019-01-06T02:36:23.117Z,6.37
2019-01-06T02:37:33.170Z,6.34
2019-01-06T02:38:43.288Z,6.42
2019-01-06T02:39:53.331Z,6.49
2019-01-06T02:41:03.583Z,6.49
2019-01-06T02:42:13.409Z,6.37
2019-01-06T02:43:23.450Z,6.39
2019-01-06T02:44:33.519Z,6.44
2019-01-06T02:45:43.608Z,6.44
2019-01-06T02:46:53.671Z,6.42
2019-01-06T02:48:05.611Z,6.46
2019-01-06T02:49:14.947Z,6.46
2019-01-06T02:50:25.021Z,6.42
2019-01-06T02:51:35.200Z,6.51
2019-01-06T02:52:45.242Z,6.52
2019-01-06T02:53:55.314Z,6.49
2019-01-06T02:55:04.997Z,6.46
2019-01-06T02:56:15.060Z,6.55
2019-01-06T02:57:25.145Z,6.54
2019-01-06T02:58:35.212Z,6.57
2019-01-06T02:59:45.043Z,6.57
2019-01-06T03:00:55.106Z,6.54
2019-01-06T03:02:05.542Z,6.6
2019-01-06T03:35:09.773Z,4.51
2019-01-06T03:36:19.631Z,4.51
2019-01-06T03:37:29.736Z,4.44
2019-01-06T03:38:39.878Z,4.46
2019-01-06T03:39:49.722Z,4.54
2019-01-06T03:40:59.579Z,4.61
2019-01-06T03:42:10.435Z,4.61
2019-01-06T03:43:20.240Z,4.71
2019-01-06T03:44:30.343Z,4.76
2019-01-06T03:45:40.462Z,4.91
2019-01-06T03:46:50.323Z,4.88
2019-01-06T03:48:03.112Z,5.08
2019-01-06T03:49:13.183Z,5.09
2019-01-06T03:50:23.042Z,5.16
2019-01-06T03:51:33.153Z,5.24
2019-01-06T03:52:43.250Z,5.26
2019-01-06T03:53:53.316Z,5.37
2019-01-06T03:55:03.470Z,5.46
2019-01-06T03:56:13.540Z,5.39
2019-01-06T03:57:23.596Z,5.44
2019-01-06T03:58:33.660Z,5.49
2019-01-06T03:59:43.686Z,5.57
2019-01-06T04:00:53.224Z,5.55
2019-01-06T04:02:03.269Z,5.6
2019-01-06T04:03:13.318Z,5.66
2019-01-06T04:04:22.865Z,5.72
2019-01-06T04:05:32.920Z,5.69
2019-01-06T04:06:42.987Z,5.78
2019-01-06T04:07:53.030Z,5.8
2019-01-06T04:09:03.082Z,5.75
2019-01-06T04:10:15.300Z,5.87
2019-01-06T04:11:25.386Z,5.95
2019-01-06T04:12:35.451Z,5.84
2019-01-06T04:13:45.260Z,5.96
2019-01-06T04:14:55.339Z,5.87
2019-01-06T04:16:05.288Z,5.88
2019-01-06T04:17:15.348Z,5.91
2019-01-06T04:18:25.285Z,5.99
2019-01-06T04:19:35.391Z,6
2019-01-06T04:20:45.468Z,5.99
2019-01-06T04:21:55.543Z,5.98
2019-01-06T04:23:06.198Z,5.99
2019-01-06T04:24:16.226Z,6.02
2019-01-06T04:25:26.323Z,6.02
2019-01-06T04:26:36.378Z,6.13
2019-01-06T04:27:46.178Z,6.1
2019-01-06T04:28:56.254Z,6.06
2019-01-06T04:30:08.309Z,6.13
2019-01-06T04:31:18.114Z,6.06
2019-01-06T04:32:28.165Z,6.18
2019-01-06T04:33:38.217Z,6.14
2019-01-06T04:34:48.014Z,6.05
2019-01-06T04:35:57.549Z,6.03
2019-01-06T04:37:07.602Z,6.1
2019-01-06T04:38:17.669Z,6.02
2019-01-06T04:39:27.826Z,6.09
2019-01-06T04:40:37.738Z,6.05
2019-01-06T04:41:47.891Z,6.14
2019-01-06T04:42:57.690Z,6.21
2019-01-06T04:44:07.739Z,6.14
2019-01-06T04:45:17.859Z,6.1
2019-01-06T04:46:27.909Z,6.25
2019-01-06T04:47:37.968Z,6.15
2019-01-06T04:48:47.760Z,6.17
2019-01-06T04:49:57.810Z,6.14
2019-01-06T04:51:07.612Z,6.09
2019-01-06T04:52:17.687Z,6.13
2019-01-06T04:53:27.772Z,6.09
2019-01-06T04:54:37.850Z,6.07
2019-01-06T04:55:47.967Z,6.17
2019-01-06T04:56:58.468Z,6.1
2019-01-06T04:58:08.651Z,5.98
2019-01-06T04:59:18.705Z,6.09
2019-01-06T05:00:28.251Z,6.03
2019-01-06T05:01:38.069Z,6.1
2019-01-06T05:02:48.128Z,6.07
2019-01-06T05:03:58.172Z,6.1
2019-01-06T05:05:07.968Z,6.09
2019-01-06T05:06:18.015Z,6.06
2019-01-06T05:07:28.112Z,6.1
2019-01-06T05:08:37.989Z,6.15
2019-01-06T05:09:48.050Z,6.13
2019-01-06T05:10:58.107Z,6
2019-01-06T05:12:07.933Z,6.06
2019-01-06T05:13:18.067Z,6.02
2019-01-06T05:14:27.976Z,6
2019-01-06T05:15:38.108Z,6.06
2019-01-06T05:16:48.159Z,6.05
2019-01-06T05:17:58.210Z,6.02
2019-01-06T05:19:08.266Z,6.02
2019-01-06T05:20:18.064Z,5.99
2019-01-06T05:21:28.124Z,6.06
2019-01-06T05:22:38.182Z,6.05
2019-01-06T05:23:48.213Z,6.07
2019-01-06T05:24:58.262Z,6.03
2019-01-06T05:26:08.168Z,5.95
2019-01-06T05:27:18.329Z,5.92
2019-01-06T05:28:28.142Z,5.96
2019-01-06T05:29:37.948Z,6
2019-01-06T05:30:48.021Z,6.03
2019-01-06T05:31:58.076Z,5.98
2019-01-06T05:33:09.021Z,5.98
2019-01-06T05:34:19.129Z,5.96
2019-01-06T05:35:28.941Z,6.02
2019-01-06T05:36:38.731Z,5.91
2019-01-06T05:37:48.830Z,5.98
2019-01-06T05:38:58.611Z,5.88
2019-01-06T05:40:08.723Z,5.98
2019-01-06T05:41:18.777Z,6
2019-01-06T05:42:28.823Z,5.99
2019-01-06T05:43:38.877Z,5.96
2019-01-06T05:44:48.678Z,5.85
2019-01-06T05:45:58.474Z,5.91
2019-01-06T05:47:08.554Z,5.88
2019-01-06T05:48:18.609Z,5.91
2019-01-06T05:49:28.675Z,5.95
2019-01-06T05:50:38.736Z,5.89
2019-01-06T05:51:48.773Z,5.87
2019-01-06T05:52:58.559Z,5.82
2019-01-06T05:54:09.556Z,5.87
2019-01-06T05:55:19.433Z,5.82
2019-01-06T05:56:29.475Z,5.89
2019-01-06T05:57:39.537Z,5.84
2019-01-06T05:58:49.585Z,5.75
2019-01-06T05:59:59.111Z,5.75
2019-01-06T06:01:12.081Z,5.8
2019-01-06T06:02:22.137Z,5.77
2019-01-06T06:03:31.950Z,5.8
2019-01-06T06:04:42.003Z,5.75
2019-01-06T06:05:51.540Z,5.8
2019-01-06T06:07:01.646Z,5.78
2019-01-06T06:08:18.917Z,5.8
2019-01-06T06:09:28.954Z,5.81
2019-01-06T06:10:38.996Z,5.7
2019-01-06T06:11:49.042Z,5.67
2019-01-06T06:12:59.099Z,5.62
2019-01-06T06:14:08.890Z,5.7
2019-01-06T06:15:18.955Z,5.7
2019-01-06T06:16:29.000Z,5.64
2019-01-06T06:17:39.054Z,5.57
2019-01-06T06:18:49.117Z,5.6
2019-01-06T06:19:59.162Z,5.49
2019-01-06T06:21:09.212Z,5.55
2019-01-06T06:22:19.014Z,5.51
2019-01-06T06:23:29.058Z,5.52
2019-01-06T06:24:39.188Z,5.54
2019-01-06T06:25:49.013Z,5.49
2019-01-06T06:26:59.070Z,5.51
2019-01-06T06:28:09.134Z,5.36
2019-01-06T06:29:19.207Z,5.34
2019-01-06T06:30:29.275Z,5.37
2019-01-06T06:31:40.366Z,5.36
2019-01-06T06:32:50.429Z,5.31
2019-01-06T06:34:00.475Z,5.33
2019-01-06T06:35:10.310Z,5.31
2019-01-06T06:36:19.945Z,5.31
2019-01-06T06:37:29.990Z,5.27
2019-01-06T06:38:39.821Z,5.33
2019-01-06T06:39:49.627Z,5.34
2019-01-06T06:40:59.667Z,5.36
2019-01-06T06:42:09.725Z,5.39
2019-01-06T06:43:19.777Z,5.41
2019-01-06T06:44:29.817Z,5.39
2019-01-06T06:45:39.363Z,5.49
2019-01-06T06:46:49.159Z,5.37
2019-01-06T06:47:59.220Z,5.46
2019-01-06T06:49:09.088Z,5.39
2019-01-06T06:50:18.883Z,5.46
2019-01-06T06:51:28.677Z,5.46
2019-01-06T06:52:38.713Z,5.51
2019-01-06T06:53:48.267Z,5.52
2019-01-06T06:55:01.150Z,5.55
2019-01-06T06:56:10.952Z,5.59
2019-01-06T06:57:21.021Z,5.59
2019-01-06T06:58:30.911Z,5.63
2019-01-06T06:59:40.708Z,5.64
2019-01-06T07:00:50.747Z,5.62
2019-01-06T07:02:00.777Z,5.59
2019-01-06T07:03:10.818Z,5.57
2019-01-06T07:04:20.637Z,5.46
2019-01-06T07:05:30.739Z,5.51
2019-01-06T07:06:40.842Z,5.39
2019-01-06T07:07:50.904Z,5.41
2019-01-06T07:09:03.146Z,5.34
2019-01-06T07:10:13.195Z,5.37
2019-01-06T07:11:23.354Z,5.41
2019-01-06T07:12:33.143Z,5.37
2019-01-06T07:13:43.608Z,5.33
2019-01-06T07:14:53.661Z,5.39
2019-01-06T07:16:03.825Z,5.51
2019-01-06T07:17:13.425Z,5.41
2019-01-06T07:18:23.277Z,5.45
2019-01-06T07:19:33.319Z,5.41
2019-01-06T07:20:43.354Z,5.37
2019-01-06T07:21:53.467Z,5.37
2019-01-06T07:23:03.584Z,5.37
2019-01-06T07:24:13.389Z,5.37
2019-01-06T07:25:23.425Z,5.39
2019-01-06T07:26:33.543Z,5.49
2019-01-06T07:27:43.600Z,5.49
2019-01-06T07:28:54.217Z,5.49
2019-01-06T07:30:04.297Z,5.6
2019-01-06T07:31:14.354Z,5.59
2019-01-06T07:32:24.402Z,5.63
2019-01-06T07:33:34.455Z,5.69
2019-01-06T07:34:44.321Z,5.69
2019-01-06T07:35:54.146Z,5.8
2019-01-06T07:37:03.938Z,5.82
2019-01-06T07:38:13.986Z,5.91
2019-01-06T07:39:23.789Z,5.96
2019-01-06T07:40:33.892Z,6.02
2019-01-06T07:41:43.444Z,6.14
2019-01-06T07:42:53.503Z,6.05
2019-01-06T07:44:03.284Z,5.95
2019-01-06T07:45:13.325Z,6.05
2019-01-06T07:46:23.107Z,5.87
2019-01-06T07:47:33.163Z,5.98
2019-01-06T07:48:43.215Z,5.91
2019-01-06T07:49:53.010Z,6.02
2019-01-06T07:51:02.830Z,6.03
2019-01-06T07:52:12.932Z,5.88
2019-01-06T07:53:22.980Z,6.03
2019-01-06T07:54:33.032Z,6.07
2019-01-06T07:55:43.091Z,6.03
2019-01-06T07:56:53.152Z,6.14
2019-01-06T07:58:02.710Z,6.1
2019-01-06T07:59:12.764Z,6.18
2019-01-06T08:00:22.603Z,6.2
2019-01-06T08:01:32.153Z,6.25
2019-01-06T08:02:41.940Z,6.25
2019-01-06T08:03:52.004Z,6.21
2019-01-06T08:05:01.788Z,6.33
2019-01-06T08:06:11.863Z,6.33
2019-01-06T08:07:21.666Z,6.31
2019-01-06T08:08:31.716Z,6.43
2019-01-06T08:09:41.794Z,6.43
2019-01-06T08:10:51.918Z,6.33
2019-01-06T08:12:01.994Z,6.43
2019-01-06T08:13:11.831Z,6.37
2019-01-06T08:14:21.906Z,6.47
2019-01-06T08:15:32.141Z,6.43
2019-01-06T08:16:42.219Z,6.46
2019-01-06T08:17:52.272Z,6.46
2019-01-06T08:19:02.412Z,6.47
2019-01-06T08:20:12.464Z,6.43
2019-01-06T08:21:22.570Z,6.46
2019-01-06T08:22:32.614Z,6.43
2019-01-06T08:23:42.401Z,6.49
2019-01-06T08:24:52.463Z,6.43
2019-01-06T08:26:02.514Z,6.57
2019-01-06T08:27:12.330Z,6.6
2019-01-06T08:28:22.150Z,6.57
2019-01-06T08:29:32.224Z,6.57
2019-01-06T08:30:41.770Z,6.58
2019-01-06T08:31:51.592Z,6.55
2019-01-06T08:33:01.407Z,6.54
2019-01-06T08:34:11.484Z,6.57
2019-01-06T08:35:21.306Z,6.68
2019-01-06T08:36:31.392Z,6.72
2019-01-06T08:37:41.464Z,6.79
2019-01-06T08:38:51.272Z,6.85
2019-01-06T08:40:02.250Z,6.9
2019-01-06T08:41:12.298Z,6.94
2019-01-06T08:42:22.091Z,6.9
2019-01-06T08:43:31.676Z,6.98
2019-01-06T08:44:41.779Z,6.91
2019-01-06T08:45:51.829Z,7.03
2019-01-06T08:47:01.897Z,7
2019-01-06T08:48:11.991Z,6.88
2019-01-06T08:49:22.101Z,6.98
2019-01-06T08:50:32.167Z,7
2019-01-06T08:51:42.289Z,7.05
2019-01-06T08:52:52.373Z,7.05
2019-01-06T08:54:02.220Z,7.19
2019-01-06T08:55:12.297Z,7.16
2019-01-06T08:56:22.415Z,7.12
2019-01-06T08:57:32.485Z,7.21
2019-01-06T08:58:42.564Z,7.22
2019-01-06T08:59:51.849Z,7.21
2019-01-06T09:01:01.166Z,7.27
2019-01-06T09:02:11.118Z,7.21
2019-01-06T09:03:20.692Z,7.29
2019-01-06T09:04:30.758Z,7.21
2019-01-06T09:05:40.578Z,7.23
2019-01-06T09:06:50.382Z,7.26
2019-01-06T09:08:00.475Z,7.26
2019-01-06T09:09:10.550Z,7.29
2019-01-06T09:10:20.634Z,7.18
2019-01-06T09:11:30.693Z,7.21
2019-01-06T09:12:48.996Z,7.21
2019-01-06T09:13:59.065Z,7.27
2019-01-06T09:15:09.129Z,7.29
2019-01-06T09:16:18.941Z,7.4
2019-01-06T09:17:28.992Z,7.33
2019-01-06T09:18:39.059Z,7.39
2019-01-06T09:19:56.500Z,7.41
2019-01-06T09:21:08.626Z,7.34
2019-01-06T09:22:18.722Z,7.36
2019-01-06T09:23:28.541Z,7.4
2019-01-06T09:24:38.346Z,7.37
2019-01-06T09:25:47.899Z,7.34
2019-01-06T09:26:57.951Z,7.22
2019-01-06T09:28:08.089Z,7.22
2019-01-06T09:29:18.089Z,7.27
2019-01-06T09:30:30.917Z,7.18
2019-01-06T09:31:41.289Z,7.33
2019-01-06T09:32:52.572Z,7.37
2019-01-06T09:34:04.089Z,7.31
2019-01-06T09:35:17.842Z,7.45
2019-01-06T09:36:30.436Z,7.64
2019-01-06T09:37:42.274Z,7.61
2019-01-06T09:38:52.666Z,7.59
2019-01-06T09:40:04.057Z,7.7
2019-01-06T09:41:14.448Z,7.74
2019-01-06T09:42:24.289Z,7.78
2019-01-06T09:43:36.639Z,7.86
2019-01-06T09:46:47.451Z,7.96
2019-01-06T09:48:04.300Z,7.93
2019-01-06T09:49:19.559Z,7.86
2019-01-06T09:50:31.981Z,7.88
2019-01-06T09:51:46.016Z,7.83
2019-01-06T09:53:15.841Z,7.78
2019-01-06T09:54:25.877Z,7.77
2019-01-06T09:55:36.215Z,7.71
2019-01-06T09:58:49.766Z,7.77
2019-01-06T09:59:59.832Z,7.68
2019-01-06T10:01:37.082Z,7.58
2019-01-06T10:03:05.904Z,7.56
2019-01-06T10:04:16.071Z,7.54
2019-01-06T10:05:26.249Z,7.64
2019-01-06T10:06:36.058Z,7.63
2019-01-06T10:07:46.720Z,7.61
2019-01-06T10:08:57.688Z,7.63
2019-01-06T10:10:11.277Z,7.75
2019-01-06T10:11:21.363Z,7.74
2019-01-06T10:12:31.414Z,7.77
2019-01-06T10:13:41.334Z,7.83
2019-01-06T10:14:51.519Z,7.85
2019-01-06T10:16:03.205Z,7.86
2019-01-06T10:17:13.275Z,7.75
2019-01-06T10:18:23.405Z,7.74
2019-01-06T10:19:33.900Z,7.75
2019-01-06T10:20:43.998Z,7.77
2019-01-06T10:21:54.150Z,7.75
2019-01-06T10:23:05.344Z,7.82
2019-01-06T10:24:15.434Z,7.93
2019-01-06T10:25:25.138Z,7.85
2019-01-06T10:26:35.223Z,7.95
2019-01-06T10:27:45.308Z,7.95
2019-01-06T10:28:55.369Z,7.92
2019-01-06T10:30:08.662Z,7.98
2019-01-06T10:31:18.840Z,8.06
2019-01-06T10:32:28.961Z,8.14
2019-01-06T10:33:38.914Z,8.22
2019-01-06T10:34:49.043Z,8.14
2019-01-06T10:35:59.132Z,8.22
2019-01-06T10:37:09.277Z,8.26
2019-01-06T10:38:19.443Z,8.26
2019-01-06T10:39:29.560Z,8.29
2019-01-06T10:40:40.349Z,8.34
2019-01-06T10:41:51.660Z,8.36
2019-01-06T10:43:01.750Z,8.28
2019-01-06T10:44:11.837Z,8.26
2019-01-06T10:45:21.927Z,8.31
2019-01-06T10:46:32.387Z,8.29
2019-01-06T10:47:42.487Z,8.35
2019-01-06T10:48:52.562Z,8.24
2019-01-06T10:50:02.760Z,8.28
2019-01-06T10:51:12.857Z,8.32
2019-01-06T10:52:22.694Z,8.29
2019-01-06T10:53:32.782Z,8.29
2019-01-06T10:54:42.867Z,8.31
2019-01-06T10:55:52.682Z,8.42
2019-01-06T10:57:02.961Z,8.34
2019-01-06T10:58:13.094Z,8.36
2019-01-06T10:59:23.164Z,8.39
2019-01-06T11:00:33.248Z,8.35
2019-01-06T11:01:43.071Z,8.32
2019-01-06T11:02:53.163Z,8.29
2019-01-06T11:04:03.270Z,8.31
2019-01-06T11:05:13.115Z,8.26
2019-01-06T11:06:23.249Z,8.16
2019-01-06T11:07:33.311Z,8.29
2019-01-06T11:08:43.101Z,8.29
2019-01-06T11:09:53.241Z,8.29
2019-01-06T11:11:03.318Z,8.19
2019-01-06T11:12:13.386Z,8.17
2019-01-06T11:13:23.564Z,8.16
2019-01-06T11:14:33.663Z,8.16
2019-01-06T11:15:43.750Z,8.19
2019-01-06T11:16:53.836Z,8.06
2019-01-06T11:18:04.191Z,7.99
2019-01-06T11:19:14.312Z,7.88
2019-01-06T11:20:24.136Z,7.86
2019-01-06T11:21:34.254Z,7.8
2019-01-06T11:22:44.387Z,7.63
2019-01-06T11:23:55.413Z,7.55
2019-01-06T11:25:06.641Z,7.4
2019-01-06T11:26:16.699Z,7.36
2019-01-06T11:27:26.791Z,7.23
2019-01-06T11:28:36.875Z,7.22
2019-01-06T11:29:47.456Z,7.11
2019-01-06T11:30:57.563Z,7.11
2019-01-06T11:32:07.680Z,6.98
2019-01-06T11:33:17.764Z,6.95
2019-01-06T11:34:28.132Z,6.94
2019-01-06T11:35:38.256Z,6.83
2019-01-06T11:36:48.103Z,6.76
2019-01-06T11:37:58.213Z,6.76
2019-01-06T11:39:11.134Z,6.82
2019-01-06T11:40:21.591Z,6.85
2019-01-06T11:41:31.676Z,6.94
2019-01-06T11:42:41.771Z,6.97
2019-01-06T11:43:51.641Z,6.94
2019-01-06T11:45:01.780Z,6.8
2019-01-06T11:46:11.901Z,6.79
2019-01-06T11:47:21.760Z,6.83
2019-01-06T11:48:31.599Z,6.86
2019-01-06T11:49:41.884Z,6.79
2019-01-06T11:50:51.985Z,6.9
2019-01-06T11:52:01.550Z,6.95
2019-01-06T11:53:11.628Z,6.97
2019-01-06T11:54:21.467Z,6.93
2019-01-06T11:55:31.580Z,6.91
2019-01-06T11:56:41.665Z,6.78
2019-01-06T11:57:51.780Z,6.82
2019-01-06T11:59:03.529Z,6.9
2019-01-06T12:00:13.763Z,6.83
2019-01-06T12:01:23.859Z,6.97
2019-01-06T12:02:41.308Z,6.83
2019-01-06T12:03:51.648Z,6.86
2019-01-06T12:05:02.571Z,6.85
2019-01-06T12:06:12.383Z,6.79
2019-01-06T12:07:22.456Z,6.88
2019-01-06T12:08:40.651Z,7
2019-01-06T12:09:50.984Z,6.95
2019-01-06T12:11:03.810Z,6.8
2019-01-06T12:12:13.895Z,6.83
2019-01-06T12:13:25.103Z,6.83
2019-01-06T12:14:35.047Z,6.76
2019-01-06T12:15:45.537Z,6.79
2019-01-06T12:16:55.627Z,6.79
2019-01-06T12:18:05.698Z,6.76
2019-01-06T12:19:15.765Z,6.73
2019-01-06T12:20:25.867Z,6.79
2019-01-06T12:21:35.977Z,6.8
2019-01-06T12:22:45.812Z,6.83
2019-01-06T12:23:56.802Z,6.79
2019-01-06T12:25:06.919Z,6.86
2019-01-06T12:26:17.207Z,6.8
2019-01-06T12:27:27.483Z,6.85
2019-01-06T12:28:37.627Z,6.78
2019-01-06T12:29:47.915Z,6.76
2019-01-06T12:30:57.748Z,6.67
2019-01-06T12:32:07.927Z,6.76
2019-01-06T12:33:18.071Z,6.76
2019-01-06T12:34:28.229Z,6.78
2019-01-06T12:35:38.436Z,6.78
2019-01-06T12:36:48.813Z,6.73
2019-01-06T12:37:59.020Z,6.73
2019-01-06T12:39:11.993Z,6.83
2019-01-06T12:40:22.172Z,6.76
2019-01-06T12:41:32.017Z,6.73
2019-01-06T12:42:42.131Z,6.73
2019-01-06T12:43:52.406Z,6.72
2019-01-06T12:45:02.831Z,6.7
2019-01-06T12:46:12.928Z,6.7
2019-01-06T12:47:23.014Z,6.65
2019-01-06T12:48:33.105Z,6.64
2019-01-06T12:49:43.235Z,6.67
2019-01-06T12:50:53.332Z,6.76
2019-01-06T12:52:03.898Z,6.86
2019-01-06T12:53:14.006Z,6.98
2019-01-06T12:54:24.097Z,7.01
2019-01-06T12:55:34.190Z,6.91
2019-01-06T12:56:44.277Z,7
2019-01-06T12:57:54.350Z,6.94
2019-01-06T12:59:04.194Z,6.8
2019-01-06T13:00:14.529Z,6.7
2019-01-06T13:01:25.263Z,6.7
2019-01-06T13:02:35.088Z,6.67
2019-01-06T13:03:44.937Z,6.67
2019-01-06T13:04:55.015Z,6.62
2019-01-06T13:06:06.594Z,6.54
2019-01-06T13:07:16.689Z,6.55
2019-01-06T13:08:28.751Z,6.6
2019-01-06T13:09:39.055Z,6.6
2019-01-06T13:10:49.155Z,6.54
2019-01-06T13:11:59.293Z,6.51
2019-01-06T13:13:09.372Z,6.52
2019-01-06T13:14:19.537Z,6.54
2019-01-06T13:15:29.405Z,6.47
2019-01-06T13:16:39.794Z,6.46
2019-01-06T13:17:49.936Z,6.57
2019-01-06T13:19:00.387Z,6.61
2019-01-06T13:20:12.388Z,6.73
2019-01-06T13:21:22.457Z,6.7
2019-01-06T13:22:32.539Z,6.65
2019-01-06T13:23:42.404Z,6.64
2019-01-06T13:24:52.280Z,6.75
2019-01-06T13:26:02.378Z,6.67
2019-01-06T13:27:12.524Z,6.65
2019-01-06T13:28:22.401Z,6.72
2019-01-06T13:29:32.527Z,6.61
2019-01-06T13:30:42.849Z,6.52
2019-01-06T13:31:52.740Z,6.51
2019-01-06T13:33:03.088Z,6.51
2019-01-06T13:34:13.212Z,6.49
2019-01-06T13:35:23.417Z,6.43
2019-01-06T13:36:33.865Z,6.39
2019-01-06T13:37:44.092Z,6.47
2019-01-06T13:38:54.186Z,6.4
2019-01-06T13:40:06.531Z,6.4
2019-01-06T13:41:16.625Z,6.43
2019-01-06T13:42:26.695Z,6.46
2019-01-06T13:43:37.683Z,6.31
2019-01-06T13:44:47.797Z,6.33
2019-01-06T13:45:58.083Z,6.37
2019-01-06T13:47:09.945Z,6.37
2019-01-06T13:48:20.015Z,6.29
2019-01-06T13:49:30.112Z,6.24
2019-01-06T13:50:40.201Z,6.28
2019-01-06T13:51:50.270Z,6.21
2019-01-06T13:53:00.350Z,6.31
2019-01-06T13:54:10.464Z,6.1
2019-01-06T13:55:20.620Z,6.14
2019-01-06T13:56:30.820Z,6.17
2019-01-06T13:57:40.988Z,6.17
2019-01-06T13:58:51.083Z,6.15
2019-01-06T14:00:01.297Z,6.17
2019-01-06T14:01:12.005Z,6.15
2019-01-06T14:02:22.098Z,6.13
2019-01-06T14:03:32.231Z,6.1
2019-01-06T14:04:44.231Z,6.07
2019-01-06T14:05:54.377Z,6.05
2019-01-06T14:07:04.488Z,6
2019-01-06T14:08:14.538Z,6
2019-01-06T14:09:24.662Z,6.03
2019-01-06T14:10:34.770Z,5.96
2019-01-06T14:11:44.874Z,6.02
2019-01-06T14:12:54.966Z,5.87
2019-01-06T14:14:05.912Z,5.92
2019-01-06T14:15:16.211Z,5.96
2019-01-06T14:16:26.385Z,5.99
2019-01-06T14:17:36.487Z,6.05
2019-01-06T14:18:46.478Z,5.98
2019-01-06T14:19:56.874Z,5.95
2019-01-06T14:21:09.395Z,5.95
2019-01-06T14:22:20.381Z,5.88
2019-01-06T14:23:33.038Z,5.87
2019-01-06T14:24:47.858Z,5.96
2019-01-06T14:26:00.076Z,5.95
2019-01-06T14:27:15.256Z,5.95
2019-01-06T14:28:30.873Z,5.91
2019-01-06T14:29:45.597Z,5.88
2019-01-06T14:30:58.026Z,5.99
2019-01-06T14:32:10.004Z,5.98
2019-01-06T14:33:20.343Z,5.88
2019-01-06T14:34:30.211Z,5.88
2019-01-06T14:35:40.371Z,5.84
2019-01-06T14:36:50.544Z,5.91
2019-01-06T14:38:00.627Z,5.89
2019-01-06T14:39:15.451Z,5.89
2019-01-06T14:40:25.790Z,5.89
2019-01-06T14:41:36.542Z,5.89
2019-01-06T14:42:47.413Z,5.99
2019-01-06T14:43:58.363Z,5.81
2019-01-06T14:45:09.180Z,5.98
2019-01-06T14:46:19.473Z,5.84
2019-01-06T14:47:29.610Z,5.82
2019-01-06T14:48:39.730Z,5.81
2019-01-06T14:49:49.585Z,5.73
2019-01-06T14:50:59.670Z,5.82
2019-01-06T14:52:09.770Z,5.73
2019-01-06T14:53:19.882Z,5.8
2019-01-06T14:54:29.982Z,5.64
2019-01-06T14:55:40.557Z,5.75
2019-01-06T14:56:50.977Z,5.63
2019-01-06T14:58:01.071Z,5.66
2019-01-06T14:59:11.081Z,5.69
2019-01-06T15:00:21.198Z,5.64
2019-01-06T15:01:31.040Z,5.57
2019-01-06T15:02:41.238Z,5.55
2019-01-06T15:03:51.333Z,5.57
2019-01-06T15:05:01.470Z,5.55
2019-01-06T15:06:11.572Z,5.64
2019-01-06T15:07:21.711Z,5.54
2019-01-06T15:08:31.816Z,5.6
2019-01-06T15:09:41.901Z,5.54
2019-01-06T15:10:52.050Z,5.51
2019-01-06T15:12:01.895Z,5.59
2019-01-06T15:13:11.987Z,5.63
2019-01-06T15:14:22.152Z,5.57
2019-01-06T15:15:32.257Z,5.57
2019-01-06T15:16:42.166Z,5.63
2019-01-06T15:17:52.238Z,5.6
2019-01-06T15:19:02.578Z,5.6
2019-01-06T15:20:13.560Z,5.59
2019-01-06T15:22:07.575Z,5.59
2019-01-06T15:23:18.156Z,5.57
2019-01-06T15:24:28.288Z,5.42
2019-01-06T15:25:38.588Z,5.54
2019-01-06T15:26:48.801Z,5.54
2019-01-06T15:27:59.010Z,5.62
2019-01-06T15:29:10.726Z,5.6
2019-01-06T15:30:20.818Z,5.57
2019-01-06T15:31:31.026Z,5.54
2019-01-06T15:32:40.887Z,5.46
2019-01-06T15:33:51.038Z,5.57
2019-01-06T15:35:01.141Z,5.51
2019-01-06T15:36:11.260Z,5.49
2019-01-06T15:37:21.346Z,5.45
2019-01-06T15:38:31.195Z,5.46
2019-01-06T15:39:41.442Z,5.51
2019-01-06T15:40:51.538Z,5.54
2019-01-06T15:42:01.610Z,5.39
2019-01-06T15:43:11.710Z,5.41
2019-01-06T15:44:21.813Z,5.46
2019-01-06T15:45:31.632Z,5.33
2019-01-06T15:46:41.722Z,5.42
2019-01-06T15:47:51.858Z,5.28
2019-01-06T15:49:02.098Z,5.44
2019-01-06T15:50:12.230Z,5.34
2019-01-06T15:51:22.362Z,5.37
2019-01-06T15:52:32.536Z,5.41
2019-01-06T15:53:42.627Z,5.42
2019-01-06T15:54:52.715Z,5.42
2019-01-06T15:56:03.613Z,5.41
2019-01-06T15:57:13.719Z,5.41
2019-01-06T15:58:23.843Z,5.41
2019-01-06T15:59:33.927Z,5.37
2019-01-06T16:00:44.054Z,5.36
2019-01-06T16:01:54.151Z,5.36
2019-01-06T16:03:05.438Z,5.45
2019-01-06T16:04:15.286Z,5.41
2019-01-06T16:05:25.098Z,5.24
2019-01-06T16:06:34.950Z,5.42
2019-01-06T16:07:44.858Z,5.41
2019-01-06T16:08:59.744Z,5.37
2019-01-06T16:10:11.120Z,5.41
2019-01-06T16:11:21.215Z,5.36
2019-01-06T16:12:31.294Z,5.41
2019-01-06T16:13:41.384Z,5.37
2019-01-06T16:14:51.847Z,5.39
2019-01-06T16:16:11.187Z,5.34
2019-01-06T16:17:21.059Z,5.41
2019-01-06T16:18:31.163Z,5.41